sensor_id;sensor_type;location;lat;lon;timestamp;P1;durP1;ratioP1;P2;durP2;ratioP2
81864;SDS011;71313;43.514;1.500;2024-03-23T00:53:54;8.55;;;4.60;;
81864;SDS011;71313;43.514;1.500;2024-03-23T00:56:21;9.75;;;4.93;;
81864;SDS011;71313;43.514;1.500;2024-03-23T00:58:49;10.60;;;5.05;;
81864;SDS011;71313;43.514;1.500;2024-03-23T01:01:15;9.68;;;5.60;;
81864;SDS011;71313;43.514;1.500;2024-03-23T01:03:40;11.05;;;5.28;;
81864;SDS011;71313;43.514;1.500;2024-03-23T01:06:06;9.13;;;5.35;;
81864;SDS011;71313;43.514;1.500;2024-03-23T01:08:31;11.88;;;5.28;;
81864;SDS011;71313;43.514;1.500;2024-03-23T01:10:58;8.38;;;5.82;;
81864;SDS011;71313;43.514;1.500;2024-03-23T01:13:25;9.70;;;5.85;;
81864;SDS011;71313;43.514;1.500;2024-03-23T01:15:51;9.75;;;5.80;;
81864;SDS011;71313;43.514;1.500;2024-03-23T01:18:17;11.80;;;6.10;;
81864;SDS011;71313;43.514;1.500;2024-03-23T01:20:43;7.85;;;5.80;;
81864;SDS011;71313;43.514;1.500;2024-03-23T01:23:09;12.50;;;6.03;;
81864;SDS011;71313;43.514;1.500;2024-03-23T01:25:34;11.93;;;6.65;;
81864;SDS011;71313;43.514;1.500;2024-03-23T01:28:00;10.65;;;6.10;;
81864;SDS011;71313;43.514;1.500;2024-03-23T01:30:26;10.32;;;5.57;;
81864;SDS011;71313;43.514;1.500;2024-03-23T01:32:52;9.00;;;5.75;;
81864;SDS011;71313;43.514;1.500;2024-03-23T01:35:19;8.85;;;6.07;;
81864;SDS011;71313;43.514;1.500;2024-03-23T01:37:45;8.85;;;5.65;;
81864;SDS011;71313;43.514;1.500;2024-03-23T01:40:10;10.38;;;5.65;;
81864;SDS011;71313;43.514;1.500;2024-03-23T01:42:38;11.00;;;6.60;;
81864;SDS011;71313;43.514;1.500;2024-03-23T01:45:05;7.65;;;5.53;;
81864;SDS011;71313;43.514;1.500;2024-03-23T01:47:33;11.20;;;5.72;;
81864;SDS011;71313;43.514;1.500;2024-03-23T01:49:59;10.35;;;6.30;;
81864;SDS011;71313;43.514;1.500;2024-03-23T01:52:25;10.75;;;6.32;;
81864;SDS011;71313;43.514;1.500;2024-03-23T01:54:52;11.55;;;6.68;;
81864;SDS011;71313;43.514;1.500;2024-03-23T01:57:18;9.45;;;6.30;;
81864;SDS011;71313;43.514;1.500;2024-03-23T01:59:45;11.05;;;6.53;;
81864;SDS011;71313;43.514;1.500;2024-03-23T02:02:10;10.88;;;6.25;;
81864;SDS011;71313;43.514;1.500;2024-03-23T02:04:36;12.25;;;6.60;;
81864;SDS011;71313;43.514;1.500;2024-03-23T02:07:01;10.30;;;6.40;;
81864;SDS011;71313;43.514;1.500;2024-03-23T02:09:27;10.95;;;6.40;;
81864;SDS011;71313;43.514;1.500;2024-03-23T02:11:53;10.52;;;5.90;;
81864;SDS011;71313;43.514;1.500;2024-03-23T02:14:19;9.25;;;5.95;;
81864;SDS011;71313;43.514;1.500;2024-03-23T02:16:45;9.77;;;5.82;;
81864;SDS011;71313;43.514;1.500;2024-03-23T02:19:12;10.20;;;5.82;;
81864;SDS011;71313;43.514;1.500;2024-03-23T02:21:38;9.68;;;5.03;;
81864;SDS011;71313;43.514;1.500;2024-03-23T02:24:03;8.73;;;5.10;;
81864;SDS011;71313;43.514;1.500;2024-03-23T02:26:29;6.47;;;4.63;;
81864;SDS011;71313;43.514;1.500;2024-03-23T02:28:55;7.85;;;4.53;;
81864;SDS011;71313;43.514;1.500;2024-03-23T02:31:21;8.07;;;4.40;;
81864;SDS011;71313;43.514;1.500;2024-03-23T02:33:46;7.13;;;4.43;;
81864;SDS011;71313;43.514;1.500;2024-03-23T02:36:12;6.60;;;3.97;;
81864;SDS011;71313;43.514;1.500;2024-03-23T02:38:38;7.68;;;4.30;;
81864;SDS011;71313;43.514;1.500;2024-03-23T02:41:03;7.95;;;4.20;;
81864;SDS011;71313;43.514;1.500;2024-03-23T02:43:29;6.95;;;3.97;;
81864;SDS011;71313;43.514;1.500;2024-03-23T02:45:56;6.55;;;3.63;;
81864;SDS011;71313;43.514;1.500;2024-03-23T02:48:22;7.15;;;3.53;;
81864;SDS011;71313;43.514;1.500;2024-03-23T02:50:48;4.32;;;3.10;;
81864;SDS011;71313;43.514;1.500;2024-03-23T02:53:14;4.30;;;2.85;;
81864;SDS011;71313;43.514;1.500;2024-03-23T02:55:39;5.82;;;3.20;;
81864;SDS011;71313;43.514;1.500;2024-03-23T02:58:05;4.25;;;2.90;;
81864;SDS011;71313;43.514;1.500;2024-03-23T03:00:30;5.75;;;2.50;;
81864;SDS011;71313;43.514;1.500;2024-03-23T03:02:58;5.03;;;2.90;;
81864;SDS011;71313;43.514;1.500;2024-03-23T03:05:23;4.28;;;2.42;;
81864;SDS011;71313;43.514;1.500;2024-03-23T03:07:49;4.47;;;2.85;;
81864;SDS011;71313;43.514;1.500;2024-03-23T03:10:14;4.75;;;2.70;;
81864;SDS011;71313;43.514;1.500;2024-03-23T03:12:42;5.65;;;2.58;;
81864;SDS011;71313;43.514;1.500;2024-03-23T03:15:08;5.22;;;2.50;;
81864;SDS011;71313;43.514;1.500;2024-03-23T03:17:34;6.13;;;2.72;;
81864;SDS011;71313;43.514;1.500;2024-03-23T03:20:00;3.95;;;2.63;;
81864;SDS011;71313;43.514;1.500;2024-03-23T03:22:26;4.43;;;2.67;;
81864;SDS011;71313;43.514;1.500;2024-03-23T03:24:51;4.57;;;2.78;;
81864;SDS011;71313;43.514;1.500;2024-03-23T03:27:18;4.30;;;2.47;;
81864;SDS011;71313;43.514;1.500;2024-03-23T03:29:44;5.28;;;2.78;;
81864;SDS011;71313;43.514;1.500;2024-03-23T03:32:10;7.45;;;2.83;;
81864;SDS011;71313;43.514;1.500;2024-03-23T03:34:37;3.97;;;2.30;;
81864;SDS011;71313;43.514;1.500;2024-03-23T03:37:02;7.57;;;3.15;;
81864;SDS011;71313;43.514;1.500;2024-03-23T03:39:28;3.97;;;2.78;;
81864;SDS011;71313;43.514;1.500;2024-03-23T03:41:55;3.03;;;2.17;;
81864;SDS011;71313;43.514;1.500;2024-03-23T03:44:21;3.65;;;2.60;;
81864;SDS011;71313;43.514;1.500;2024-03-23T03:46:47;6.72;;;3.03;;
81864;SDS011;71313;43.514;1.500;2024-03-23T03:49:13;5.45;;;2.78;;
81864;SDS011;71313;43.514;1.500;2024-03-23T03:51:38;5.38;;;2.70;;
81864;SDS011;71313;43.514;1.500;2024-03-23T03:54:04;3.92;;;2.53;;
81864;SDS011;71313;43.514;1.500;2024-03-23T03:56:29;6.70;;;2.40;;
81864;SDS011;71313;43.514;1.500;2024-03-23T03:58:56;4.90;;;2.50;;
81864;SDS011;71313;43.514;1.500;2024-03-23T04:01:21;5.50;;;2.58;;
81864;SDS011;71313;43.514;1.500;2024-03-23T04:03:48;4.30;;;2.47;;
81864;SDS011;71313;43.514;1.500;2024-03-23T04:06:20;4.88;;;2.42;;
81864;SDS011;71313;43.514;1.500;2024-03-23T04:08:45;6.32;;;2.45;;
81864;SDS011;71313;43.514;1.500;2024-03-23T04:11:11;4.07;;;2.30;;
81864;SDS011;71313;43.514;1.500;2024-03-23T04:13:36;6.15;;;2.95;;
81864;SDS011;71313;43.514;1.500;2024-03-23T04:16:01;4.70;;;2.38;;
81864;SDS011;71313;43.514;1.500;2024-03-23T04:18:27;6.80;;;2.40;;
81864;SDS011;71313;43.514;1.500;2024-03-23T04:20:52;6.22;;;2.60;;
81864;SDS011;71313;43.514;1.500;2024-03-23T04:23:19;2.58;;;2.00;;
81864;SDS011;71313;43.514;1.500;2024-03-23T04:25:46;4.60;;;2.15;;
81864;SDS011;71313;43.514;1.500;2024-03-23T04:28:11;5.32;;;2.28;;
81864;SDS011;71313;43.514;1.500;2024-03-23T04:30:37;5.63;;;2.10;;
81864;SDS011;71313;43.514;1.500;2024-03-23T04:33:03;6.55;;;2.00;;
81864;SDS011;71313;43.514;1.500;2024-03-23T04:35:28;4.82;;;2.13;;
81864;SDS011;71313;43.514;1.500;2024-03-23T04:37:53;5.28;;;2.00;;
81864;SDS011;71313;43.514;1.500;2024-03-23T04:40:20;4.38;;;2.30;;
81864;SDS011;71313;43.514;1.500;2024-03-23T04:42:46;4.88;;;2.20;;
81864;SDS011;71313;43.514;1.500;2024-03-23T04:45:11;5.38;;;2.28;;
81864;SDS011;71313;43.514;1.500;2024-03-23T04:47:37;2.88;;;1.90;;
81864;SDS011;71313;43.514;1.500;2024-03-23T04:50:03;4.78;;;2.10;;
81864;SDS011;71313;43.514;1.500;2024-03-23T04:52:29;5.88;;;2.20;;
81864;SDS011;71313;43.514;1.500;2024-03-23T04:54:55;5.00;;;1.98;;
81864;SDS011;71313;43.514;1.500;2024-03-23T04:57:20;4.72;;;1.75;;
81864;SDS011;71313;43.514;1.500;2024-03-23T04:59:46;5.30;;;2.03;;
81864;SDS011;71313;43.514;1.500;2024-03-23T05:02:12;5.13;;;2.20;;
81864;SDS011;71313;43.514;1.500;2024-03-23T05:04:38;3.92;;;2.10;;
81864;SDS011;71313;43.514;1.500;2024-03-23T05:07:03;3.53;;;2.10;;
81864;SDS011;71313;43.514;1.500;2024-03-23T05:09:29;2.53;;;1.92;;
81864;SDS011;71313;43.514;1.500;2024-03-23T05:11:55;5.95;;;2.08;;
81864;SDS011;71313;43.514;1.500;2024-03-23T05:14:21;4.43;;;1.80;;
81864;SDS011;71313;43.514;1.500;2024-03-23T05:16:47;3.53;;;2.13;;
81864;SDS011;71313;43.514;1.500;2024-03-23T05:19:13;4.65;;;1.70;;
81864;SDS011;71313;43.514;1.500;2024-03-23T05:21:38;5.63;;;1.80;;
81864;SDS011;71313;43.514;1.500;2024-03-23T05:24:03;2.95;;;1.70;;
81864;SDS011;71313;43.514;1.500;2024-03-23T05:26:29;3.55;;;1.60;;
81864;SDS011;71313;43.514;1.500;2024-03-23T05:28:55;2.55;;;1.40;;
81864;SDS011;71313;43.514;1.500;2024-03-23T05:31:28;3.55;;;1.58;;
81864;SDS011;71313;43.514;1.500;2024-03-23T05:33:55;6.13;;;1.95;;
81864;SDS011;71313;43.514;1.500;2024-03-23T05:36:20;3.10;;;1.50;;
81864;SDS011;71313;43.514;1.500;2024-03-23T05:38:46;3.72;;;1.67;;
81864;SDS011;71313;43.514;1.500;2024-03-23T05:41:13;2.83;;;1.60;;
81864;SDS011;71313;43.514;1.500;2024-03-23T05:43:39;3.60;;;1.67;;
81864;SDS011;71313;43.514;1.500;2024-03-23T05:46:04;4.25;;;1.60;;
81864;SDS011;71313;43.514;1.500;2024-03-23T05:48:33;4.70;;;1.95;;
81864;SDS011;71313;43.514;1.500;2024-03-23T05:50:59;4.63;;;1.90;;
81864;SDS011;71313;43.514;1.500;2024-03-23T05:53:25;3.83;;;1.40;;
81864;SDS011;71313;43.514;1.500;2024-03-23T05:55:50;3.10;;;1.85;;
81864;SDS011;71313;43.514;1.500;2024-03-23T05:58:18;3.55;;;1.70;;
81864;SDS011;71313;43.514;1.500;2024-03-23T06:00:45;3.80;;;1.80;;
81864;SDS011;71313;43.514;1.500;2024-03-23T06:03:11;4.57;;;1.60;;
81864;SDS011;71313;43.514;1.500;2024-03-23T06:05:36;2.97;;;1.73;;
81864;SDS011;71313;43.514;1.500;2024-03-23T06:08:02;3.85;;;1.90;;
81864;SDS011;71313;43.514;1.500;2024-03-23T06:10:28;3.53;;;1.50;;
81864;SDS011;71313;43.514;1.500;2024-03-23T06:12:53;3.92;;;1.50;;
81864;SDS011;71313;43.514;1.500;2024-03-23T06:15:19;3.88;;;1.60;;
81864;SDS011;71313;43.514;1.500;2024-03-23T06:17:44;6.45;;;1.90;;
81864;SDS011;71313;43.514;1.500;2024-03-23T06:20:10;4.53;;;1.60;;
81864;SDS011;71313;43.514;1.500;2024-03-23T06:22:35;6.45;;;1.60;;
81864;SDS011;71313;43.514;1.500;2024-03-23T06:25:01;3.65;;;1.60;;
81864;SDS011;71313;43.514;1.500;2024-03-23T06:27:27;2.60;;;1.58;;
81864;SDS011;71313;43.514;1.500;2024-03-23T06:29:52;4.30;;;1.67;;
81864;SDS011;71313;43.514;1.500;2024-03-23T06:32:18;4.10;;;1.67;;
81864;SDS011;71313;43.514;1.500;2024-03-23T06:34:43;2.72;;;1.40;;
81864;SDS011;71313;43.514;1.500;2024-03-23T06:37:09;4.32;;;1.60;;
81864;SDS011;71313;43.514;1.500;2024-03-23T06:39:35;2.67;;;1.25;;
81864;SDS011;71313;43.514;1.500;2024-03-23T06:42:02;6.03;;;2.08;;
81864;SDS011;71313;43.514;1.500;2024-03-23T06:44:27;4.85;;;1.60;;
81864;SDS011;71313;43.514;1.500;2024-03-23T06:46:53;6.32;;;1.77;;
81864;SDS011;71313;43.514;1.500;2024-03-23T06:49:18;3.70;;;1.60;;
81864;SDS011;71313;43.514;1.500;2024-03-23T06:51:44;4.78;;;1.60;;
81864;SDS011;71313;43.514;1.500;2024-03-23T06:54:10;3.17;;;1.63;;
81864;SDS011;71313;43.514;1.500;2024-03-23T06:56:36;4.35;;;1.55;;
81864;SDS011;71313;43.514;1.500;2024-03-23T06:59:01;5.43;;;1.67;;
81864;SDS011;71313;43.514;1.500;2024-03-23T07:01:26;5.25;;;1.52;;
81864;SDS011;71313;43.514;1.500;2024-03-23T07:03:53;3.55;;;1.38;;
81864;SDS011;71313;43.514;1.500;2024-03-23T07:06:19;4.53;;;1.33;;
81864;SDS011;71313;43.514;1.500;2024-03-23T07:08:44;3.72;;;1.55;;
81864;SDS011;71313;43.514;1.500;2024-03-23T07:11:10;2.92;;;1.50;;
81864;SDS011;71313;43.514;1.500;2024-03-23T07:13:35;4.82;;;1.65;;
81864;SDS011;71313;43.514;1.500;2024-03-23T07:16:00;3.45;;;1.30;;
81864;SDS011;71313;43.514;1.500;2024-03-23T07:18:26;3.22;;;1.10;;
81864;SDS011;71313;43.514;1.500;2024-03-23T07:20:54;3.60;;;1.40;;
81864;SDS011;71313;43.514;1.500;2024-03-23T07:23:24;2.33;;;1.30;;
81864;SDS011;71313;43.514;1.500;2024-03-23T07:26:03;2.72;;;1.48;;
81864;SDS011;71313;43.514;1.500;2024-03-23T07:28:30;2.63;;;1.40;;
81864;SDS011;71313;43.514;1.500;2024-03-23T07:31:06;3.28;;;1.45;;
81864;SDS011;71313;43.514;1.500;2024-03-23T07:33:35;2.75;;;1.60;;
81864;SDS011;71313;43.514;1.500;2024-03-23T07:36:11;3.65;;;1.52;;
81864;SDS011;71313;43.514;1.500;2024-03-23T07:38:36;1.70;;;1.10;;
81864;SDS011;71313;43.514;1.500;2024-03-23T07:41:05;2.53;;;1.73;;
81864;SDS011;71313;43.514;1.500;2024-03-23T07:43:31;3.50;;;1.30;;
81864;SDS011;71313;43.514;1.500;2024-03-23T07:45:56;3.97;;;1.90;;
81864;SDS011;71313;43.514;1.500;2024-03-23T07:48:22;3.47;;;1.92;;
81864;SDS011;71313;43.514;1.500;2024-03-23T07:50:56;2.25;;;1.17;;
81864;SDS011;71313;43.514;1.500;2024-03-23T07:53:34;3.10;;;0.90;;
81864;SDS011;71313;43.514;1.500;2024-03-23T07:56:07;1.50;;;0.70;;
81864;SDS011;71313;43.514;1.500;2024-03-23T07:58:34;0.60;;;0.55;;
81864;SDS011;71313;43.514;1.500;2024-03-23T08:01:07;0.82;;;0.40;;
81864;SDS011;71313;43.514;1.500;2024-03-23T08:03:34;1.02;;;0.43;;
81864;SDS011;71313;43.514;1.500;2024-03-23T08:08:40;0.90;;;0.50;;
81864;SDS011;71313;43.514;1.500;2024-03-23T08:11:07;0.82;;;0.50;;
81864;SDS011;71313;43.514;1.500;2024-03-23T08:13:33;2.85;;;0.52;;
81864;SDS011;71313;43.514;1.500;2024-03-23T08:16:00;2.35;;;0.50;;
81864;SDS011;71313;43.514;1.500;2024-03-23T08:18:28;1.52;;;0.40;;
81864;SDS011;71313;43.514;1.500;2024-03-23T08:23:23;2.28;;;0.70;;
81864;SDS011;71313;43.514;1.500;2024-03-23T08:25:49;4.82;;;0.80;;
81864;SDS011;71313;43.514;1.500;2024-03-23T08:28:15;2.20;;;0.80;;
81864;SDS011;71313;43.514;1.500;2024-03-23T08:30:40;2.25;;;0.90;;
81864;SDS011;71313;43.514;1.500;2024-03-23T08:33:06;2.35;;;0.68;;
81864;SDS011;71313;43.514;1.500;2024-03-23T08:35:31;3.63;;;1.02;;
81864;SDS011;71313;43.514;1.500;2024-03-23T08:37:57;3.90;;;1.08;;
81864;SDS011;71313;43.514;1.500;2024-03-23T08:40:22;6.82;;;1.50;;
81864;SDS011;71313;43.514;1.500;2024-03-23T08:42:47;2.85;;;1.00;;
81864;SDS011;71313;43.514;1.500;2024-03-23T08:45:13;6.28;;;1.30;;
81864;SDS011;71313;43.514;1.500;2024-03-23T08:47:38;3.67;;;1.00;;
81864;SDS011;71313;43.514;1.500;2024-03-23T08:50:05;2.85;;;0.90;;
81864;SDS011;71313;43.514;1.500;2024-03-23T08:52:31;3.05;;;1.27;;
81864;SDS011;71313;43.514;1.500;2024-03-23T08:54:56;2.08;;;1.10;;
81864;SDS011;71313;43.514;1.500;2024-03-23T08:57:23;3.78;;;1.30;;
81864;SDS011;71313;43.514;1.500;2024-03-23T08:59:48;5.32;;;1.13;;
81864;SDS011;71313;43.514;1.500;2024-03-23T09:02:14;3.85;;;0.88;;
81864;SDS011;71313;43.514;1.500;2024-03-23T09:04:40;5.15;;;1.40;;
81864;SDS011;71313;43.514;1.500;2024-03-23T09:07:05;2.30;;;0.90;;
81864;SDS011;71313;43.514;1.500;2024-03-23T09:09:30;2.67;;;1.00;;
81864;SDS011;71313;43.514;1.500;2024-03-23T09:11:56;6.18;;;1.08;;
81864;SDS011;71313;43.514;1.500;2024-03-23T09:14:22;3.33;;;0.80;;
81864;SDS011;71313;43.514;1.500;2024-03-23T09:16:50;3.58;;;1.10;;
81864;SDS011;71313;43.514;1.500;2024-03-23T09:19:19;4.40;;;1.05;;
81864;SDS011;71313;43.514;1.500;2024-03-23T09:21:45;3.17;;;0.90;;
81864;SDS011;71313;43.514;1.500;2024-03-23T09:24:10;3.53;;;1.00;;
81864;SDS011;71313;43.514;1.500;2024-03-23T09:26:36;2.65;;;1.13;;
81864;SDS011;71313;43.514;1.500;2024-03-23T09:29:01;3.75;;;0.90;;
81864;SDS011;71313;43.514;1.500;2024-03-23T09:31:26;5.97;;;1.10;;
81864;SDS011;71313;43.514;1.500;2024-03-23T09:33:52;3.05;;;1.08;;
81864;SDS011;71313;43.514;1.500;2024-03-23T09:36:18;5.57;;;1.48;;
81864;SDS011;71313;43.514;1.500;2024-03-23T09:38:44;8.15;;;1.92;;
81864;SDS011;71313;43.514;1.500;2024-03-23T09:41:10;5.03;;;1.20;;
81864;SDS011;71313;43.514;1.500;2024-03-23T09:43:37;5.03;;;1.20;;
81864;SDS011;71313;43.514;1.500;2024-03-23T09:46:04;5.32;;;1.00;;
81864;SDS011;71313;43.514;1.500;2024-03-23T09:48:30;4.18;;;1.40;;
81864;SDS011;71313;43.514;1.500;2024-03-23T09:50:57;4.38;;;1.30;;
81864;SDS011;71313;43.514;1.500;2024-03-23T09:53:24;4.80;;;1.23;;
81864;SDS011;71313;43.514;1.500;2024-03-23T09:55:50;3.08;;;1.17;;
81864;SDS011;71313;43.514;1.500;2024-03-23T09:58:16;5.30;;;1.10;;
81864;SDS011;71313;43.514;1.500;2024-03-23T10:00:43;4.10;;;1.27;;
81864;SDS011;71313;43.514;1.500;2024-03-23T10:03:09;3.97;;;1.27;;
81864;SDS011;71313;43.514;1.500;2024-03-23T10:05:36;4.07;;;1.40;;
81864;SDS011;71313;43.514;1.500;2024-03-23T10:10:44;3.88;;;1.02;;
81864;SDS011;71313;43.514;1.500;2024-03-23T10:13:10;6.25;;;1.27;;
81864;SDS011;71313;43.514;1.500;2024-03-23T10:15:39;2.97;;;1.02;;
81864;SDS011;71313;43.514;1.500;2024-03-23T10:18:17;3.80;;;1.00;;
81864;SDS011;71313;43.514;1.500;2024-03-23T10:23:33;3.88;;;1.30;;
81864;SDS011;71313;43.514;1.500;2024-03-23T10:28:38;4.20;;;1.30;;
81864;SDS011;71313;43.514;1.500;2024-03-23T10:31:36;3.72;;;1.17;;
81864;SDS011;71313;43.514;1.500;2024-03-23T10:34:02;3.25;;;1.10;;
81864;SDS011;71313;43.514;1.500;2024-03-23T10:36:28;5.30;;;1.33;;
81864;SDS011;71313;43.514;1.500;2024-03-23T10:38:55;3.58;;;1.08;;
81864;SDS011;71313;43.514;1.500;2024-03-23T10:41:20;2.97;;;1.10;;
81864;SDS011;71313;43.514;1.500;2024-03-23T10:43:48;3.22;;;0.90;;
81864;SDS011;71313;43.514;1.500;2024-03-23T10:46:19;3.80;;;1.00;;
81864;SDS011;71313;43.514;1.500;2024-03-23T10:48:44;3.05;;;0.98;;
81864;SDS011;71313;43.514;1.500;2024-03-23T10:51:10;5.65;;;1.27;;
81864;SDS011;71313;43.514;1.500;2024-03-23T10:53:36;4.55;;;1.35;;
81864;SDS011;71313;43.514;1.500;2024-03-23T10:56:04;4.45;;;1.20;;
81864;SDS011;71313;43.514;1.500;2024-03-23T10:58:33;3.55;;;1.08;;
81864;SDS011;71313;43.514;1.500;2024-03-23T11:01:04;2.78;;;1.00;;
81864;SDS011;71313;43.514;1.500;2024-03-23T11:03:30;2.97;;;1.10;;
81864;SDS011;71313;43.514;1.500;2024-03-23T11:05:58;4.20;;;1.02;;
81864;SDS011;71313;43.514;1.500;2024-03-23T11:08:46;3.50;;;1.20;;
81864;SDS011;71313;43.514;1.500;2024-03-23T11:11:22;2.53;;;1.00;;
81864;SDS011;71313;43.514;1.500;2024-03-23T11:13:51;4.18;;;1.42;;
81864;SDS011;71313;43.514;1.500;2024-03-23T11:16:25;3.17;;;1.10;;
81864;SDS011;71313;43.514;1.500;2024-03-23T11:22:03;3.58;;;1.20;;
81864;SDS011;71313;43.514;1.500;2024-03-23T11:24:30;3.28;;;0.88;;
81864;SDS011;71313;43.514;1.500;2024-03-23T11:26:57;2.83;;;1.08;;
81864;SDS011;71313;43.514;1.500;2024-03-23T11:29:29;2.15;;;0.73;;
81864;SDS011;71313;43.514;1.500;2024-03-23T11:31:55;1.83;;;1.00;;
81864;SDS011;71313;43.514;1.500;2024-03-23T11:34:23;2.35;;;1.13;;
81864;SDS011;71313;43.514;1.500;2024-03-23T11:36:48;2.88;;;0.80;;
81864;SDS011;71313;43.514;1.500;2024-03-23T11:39:19;2.92;;;1.02;;
81864;SDS011;71313;43.514;1.500;2024-03-23T11:44:24;3.00;;;0.82;;
81864;SDS011;71313;43.514;1.500;2024-03-23T11:46:51;2.05;;;0.80;;
81864;SDS011;71313;43.514;1.500;2024-03-23T11:49:20;2.72;;;0.75;;
81864;SDS011;71313;43.514;1.500;2024-03-23T11:51:53;1.83;;;0.70;;
81864;SDS011;71313;43.514;1.500;2024-03-23T11:54:20;3.58;;;0.93;;
81864;SDS011;71313;43.514;1.500;2024-03-23T11:56:53;2.13;;;0.80;;
81864;SDS011;71313;43.514;1.500;2024-03-23T11:59:56;1.60;;;0.77;;
81864;SDS011;71313;43.514;1.500;2024-03-23T12:02:15;2.00;;;0.75;;
81864;SDS011;71313;43.514;1.500;2024-03-23T12:04:43;1.63;;;0.70;;
81864;SDS011;71313;43.514;1.500;2024-03-23T12:07:09;1.67;;;0.90;;
81864;SDS011;71313;43.514;1.500;2024-03-23T12:09:35;2.05;;;0.60;;
81864;SDS011;71313;43.514;1.500;2024-03-23T12:12:18;3.10;;;0.60;;
81864;SDS011;71313;43.514;1.500;2024-03-23T12:17:10;2.22;;;0.80;;
81864;SDS011;71313;43.514;1.500;2024-03-23T12:19:39;2.30;;;0.80;;
81864;SDS011;71313;43.514;1.500;2024-03-23T12:22:07;2.03;;;0.68;;
81864;SDS011;71313;43.514;1.500;2024-03-23T12:24:34;2.10;;;0.70;;
81864;SDS011;71313;43.514;1.500;2024-03-23T12:27:03;2.30;;;0.73;;
81864;SDS011;71313;43.514;1.500;2024-03-23T12:29:32;1.48;;;0.60;;
81864;SDS011;71313;43.514;1.500;2024-03-23T12:31:59;1.83;;;0.60;;
81864;SDS011;71313;43.514;1.500;2024-03-23T12:34:26;3.60;;;0.90;;
81864;SDS011;71313;43.514;1.500;2024-03-23T12:36:55;2.15;;;0.80;;
81864;SDS011;71313;43.514;1.500;2024-03-23T12:39:22;1.60;;;0.65;;
81864;SDS011;71313;43.514;1.500;2024-03-23T12:41:48;2.03;;;0.98;;
81864;SDS011;71313;43.514;1.500;2024-03-23T12:44:20;1.33;;;0.60;;
81864;SDS011;71313;43.514;1.500;2024-03-23T12:49:15;3.08;;;0.93;;
81864;SDS011;71313;43.514;1.500;2024-03-23T12:51:53;2.78;;;0.85;;
81864;SDS011;71313;43.514;1.500;2024-03-23T12:54:23;3.38;;;0.80;;
81864;SDS011;71313;43.514;1.500;2024-03-23T12:56:51;3.38;;;0.98;;
81864;SDS011;71313;43.514;1.500;2024-03-23T12:59:18;3.25;;;0.77;;
81864;SDS011;71313;43.514;1.500;2024-03-23T13:01:45;1.55;;;0.70;;
81864;SDS011;71313;43.514;1.500;2024-03-23T13:04:16;2.58;;;0.60;;
81864;SDS011;71313;43.514;1.500;2024-03-23T13:06:47;1.60;;;0.57;;
81864;SDS011;71313;43.514;1.500;2024-03-23T13:09:19;2.22;;;0.65;;
81864;SDS011;71313;43.514;1.500;2024-03-23T13:11:50;1.60;;;0.60;;
81864;SDS011;71313;43.514;1.500;2024-03-23T13:14:22;1.35;;;0.65;;
81864;SDS011;71313;43.514;1.500;2024-03-23T13:16:50;2.13;;;0.73;;
81864;SDS011;71313;43.514;1.500;2024-03-23T13:19:15;1.85;;;0.70;;
81864;SDS011;71313;43.514;1.500;2024-03-23T13:21:53;2.35;;;0.77;;
81864;SDS011;71313;43.514;1.500;2024-03-23T13:24:23;1.95;;;0.80;;
81864;SDS011;71313;43.514;1.500;2024-03-23T13:26:52;2.38;;;0.73;;
81864;SDS011;71313;43.514;1.500;2024-03-23T13:29:21;3.10;;;0.80;;
81864;SDS011;71313;43.514;1.500;2024-03-23T13:31:51;2.90;;;0.80;;
81864;SDS011;71313;43.514;1.500;2024-03-23T13:34:20;2.47;;;0.70;;
81864;SDS011;71313;43.514;1.500;2024-03-23T13:36:48;3.30;;;0.77;;
81864;SDS011;71313;43.514;1.500;2024-03-23T13:39:15;2.17;;;0.80;;
81864;SDS011;71313;43.514;1.500;2024-03-23T13:41:46;2.08;;;0.70;;
81864;SDS011;71313;43.514;1.500;2024-03-23T13:46:46;3.22;;;0.80;;
81864;SDS011;71313;43.514;1.500;2024-03-23T13:49:27;2.20;;;0.70;;
81864;SDS011;71313;43.514;1.500;2024-03-23T13:51:59;2.80;;;0.70;;
81864;SDS011;71313;43.514;1.500;2024-03-23T13:54:30;2.47;;;0.90;;
81864;SDS011;71313;43.514;1.500;2024-03-23T13:59:26;2.63;;;0.80;;
81864;SDS011;71313;43.514;1.500;2024-03-23T14:01:55;2.70;;;0.73;;
81864;SDS011;71313;43.514;1.500;2024-03-23T14:04:21;2.78;;;0.73;;
81864;SDS011;71313;43.514;1.500;2024-03-23T14:06:47;4.72;;;1.08;;
81864;SDS011;71313;43.514;1.500;2024-03-23T14:09:13;2.42;;;0.60;;
81864;SDS011;71313;43.514;1.500;2024-03-23T14:11:46;2.05;;;1.00;;
81864;SDS011;71313;43.514;1.500;2024-03-23T14:14:15;2.60;;;1.42;;
81864;SDS011;71313;43.514;1.500;2024-03-23T14:16:46;1.95;;;0.80;;
81864;SDS011;71313;43.514;1.500;2024-03-23T14:19:14;3.72;;;0.90;;
81864;SDS011;71313;43.514;1.500;2024-03-23T14:21:43;3.42;;;0.93;;
81864;SDS011;71313;43.514;1.500;2024-03-23T14:24:15;3.50;;;0.85;;
81864;SDS011;71313;43.514;1.500;2024-03-23T14:26:43;3.97;;;0.90;;
81864;SDS011;71313;43.514;1.500;2024-03-23T14:29:09;4.00;;;0.90;;
81864;SDS011;71313;43.514;1.500;2024-03-23T14:31:37;2.20;;;0.80;;
81864;SDS011;71313;43.514;1.500;2024-03-23T14:34:04;3.75;;;0.70;;
81864;SDS011;71313;43.514;1.500;2024-03-23T14:36:29;2.65;;;1.10;;
81864;SDS011;71313;43.514;1.500;2024-03-23T14:38:58;3.17;;;1.00;;
81864;SDS011;71313;43.514;1.500;2024-03-23T14:41:23;1.77;;;0.65;;
81864;SDS011;71313;43.514;1.500;2024-03-23T14:43:50;3.03;;;0.77;;
81864;SDS011;71313;43.514;1.500;2024-03-23T14:46:19;3.63;;;1.00;;
81864;SDS011;71313;43.514;1.500;2024-03-23T14:48:46;2.05;;;0.80;;
81864;SDS011;71313;43.514;1.500;2024-03-23T14:51:11;3.20;;;1.80;;
81864;SDS011;71313;43.514;1.500;2024-03-23T14:53:41;3.05;;;0.93;;
81864;SDS011;71313;43.514;1.500;2024-03-23T14:56:10;2.20;;;0.90;;
81864;SDS011;71313;43.514;1.500;2024-03-23T14:58:42;3.90;;;1.10;;
81864;SDS011;71313;43.514;1.500;2024-03-23T15:01:10;4.13;;;0.93;;
81864;SDS011;71313;43.514;1.500;2024-03-23T15:03:39;3.15;;;0.82;;
81864;SDS011;71313;43.514;1.500;2024-03-23T15:06:08;3.83;;;1.30;;
81864;SDS011;71313;43.514;1.500;2024-03-23T15:08:36;2.55;;;0.90;;
81864;SDS011;71313;43.514;1.500;2024-03-23T15:11:07;3.03;;;0.73;;
81864;SDS011;71313;43.514;1.500;2024-03-23T15:13:33;3.35;;;1.10;;
81864;SDS011;71313;43.514;1.500;2024-03-23T15:16:03;3.40;;;1.00;;
81864;SDS011;71313;43.514;1.500;2024-03-23T15:18:32;2.97;;;1.00;;
81864;SDS011;71313;43.514;1.500;2024-03-23T15:21:01;3.28;;;1.00;;
81864;SDS011;71313;43.514;1.500;2024-03-23T15:23:34;3.72;;;1.08;;
81864;SDS011;71313;43.514;1.500;2024-03-23T15:26:01;2.05;;;0.82;;
81864;SDS011;71313;43.514;1.500;2024-03-23T15:28:31;3.42;;;1.15;;
81864;SDS011;71313;43.514;1.500;2024-03-23T15:31:09;3.95;;;1.10;;
81864;SDS011;71313;43.514;1.500;2024-03-23T15:36:08;3.50;;;0.95;;
81864;SDS011;71313;43.514;1.500;2024-03-23T15:38:35;2.67;;;1.23;;
81864;SDS011;71313;43.514;1.500;2024-03-23T15:41:00;2.40;;;0.90;;
81864;SDS011;71313;43.514;1.500;2024-03-23T15:43:28;2.50;;;0.80;;
81864;SDS011;71313;43.514;1.500;2024-03-23T15:46:00;3.33;;;0.93;;
81864;SDS011;71313;43.514;1.500;2024-03-23T15:48:27;4.18;;;1.10;;
81864;SDS011;71313;43.514;1.500;2024-03-23T15:50:55;3.97;;;1.02;;
81864;SDS011;71313;43.514;1.500;2024-03-23T15:53:27;3.50;;;1.20;;
81864;SDS011;71313;43.514;1.500;2024-03-23T15:56:01;3.45;;;0.90;;
81864;SDS011;71313;43.514;1.500;2024-03-23T15:58:30;2.45;;;0.70;;
81864;SDS011;71313;43.514;1.500;2024-03-23T16:03:34;2.17;;;0.75;;
81864;SDS011;71313;43.514;1.500;2024-03-23T16:06:00;3.00;;;0.90;;
81864;SDS011;71313;43.514;1.500;2024-03-23T16:08:27;2.67;;;0.88;;
81864;SDS011;71313;43.514;1.500;2024-03-23T16:10:59;4.65;;;0.80;;
81864;SDS011;71313;43.514;1.500;2024-03-23T16:13:26;2.75;;;0.88;;
81864;SDS011;71313;43.514;1.500;2024-03-23T16:15:56;2.03;;;0.73;;